Naha Airport
ROAH : now visible

Airfield :











YOU CAN JOIN US ON...

 
LOGIN :

Register | Disclaimer

   EN    FR    IT 

 









Legend :    VFR   Marginal VFR   IFR   Intensive IFR   Very Intensive IFR
Visi :
Ceiling :
>= 8 km
>= 3000ft
5 to 8 km
1000 to 3000 ft
1500m to 5 km
500 to 1000 ft
800 to 1500m
200 to 500 ft
< 800m
< 200 ft
Symbols :   Thunderstorms  Fog  Heavy snow  Heavy precipitations  Wind > 20 kt






- Airport Elevation : 12 ft
- IATA code : OKA


ROAH - Naha

CURRENT METAR :
  • 311130Z 16004KT 9999 +SHRA FEW015 SCT025 BKN070 26/25 Q1011 RMK 1CU015 4CU025 6AC070 A2987

EXPIRED METARs :
  • 311100Z 18004KT 9999 -SHRA FEW015 BKN020 BKN100 26/25 Q1011 RMK 1CU015 5CU020 6AC100 A2987
  • 311030Z 15004KT 9999 -RA FEW020 SCT025 BKN160 26/24 Q1011 RMK 1CU020 3CU025 6AC160 A2985
  • 311000Z 18004KT 9999 -RA FEW020 SCT025 BKN070 26/25 Q1011 RMK 1CU020 4CU025 5AC070 A2985
  • 310930Z 17004KT 9999 -RA FEW020 SCT025 BKN140 25/24 Q1011 RMK 1CU020 3CU025 5AC140 A2985
  • 310900Z 24004KT 190V300 9999 -SHRA FEW025 BKN030 25/24 Q1010 RMK 1CU025 6CU030 A2985

TAF TAF ROAH
Valid from the 31 at 12:00 until the 01 at 18:00 UTC


311107Z 3112/0118 19010KT 9999 FEW008 BKN015
TEMPO 3114/3117 4000 SHRA FEW006 BKN008 BKN015 FEW020CB
TEMPO 3117/3120 3000 TSRA FEW006 BKN008 BKN015 FEW020CB
BECMG 3121/3123 35008KT
RJJJ FIR / Asia



MET'MAP, your aeronautical weather chart ! - Copyright ORBIFLY December 2007 - Disclaimer

ORBIFLY MET'MAP TEAM :

Programming & Development : Alexandra Zaïnal
Concept & original design : Baudouin d'Aumeries
Assistance for programming : Marc-Olivier Méhu
Technical & hardware support : Manuel Goepfert

Contact : metmap@orbifly.com




SOURCES & CREDITS :

   NOAA       Earth
Advisory